Time;durP1;ratioP1;P1;durP2;ratioP2;P2;SDS_P1;SDS_P2;PMS_P1;PMS_P2;Temp;Humidity;BMP_temperature;BMP_pressure;BME280_temperature;BME280_humidity;BME280_pressure;Samples;Min_cycle;Max_cycle;Signal;HPM_P1;HPM_P2
2021/09/24 00:02:07;;;;;;;2.53;1.10;;;17.10;70.70;;;;;;4983647;28;97582;-48
2021/09/24 00:04:39;;;;;;;2.25;0.98;;;17.10;70.70;;;;;;4986106;28;95642;-46
2021/09/24 00:07:10;;;;;;;2.08;0.80;;;17.20;70.70;;;;;;4987317;28;95959;-46
2021/09/24 00:09:42;;;;;;;2.33;1.15;;;17.10;70.70;;;;;;4979448;28;100768;-47
2021/09/24 00:12:13;;;;;;;3.85;2.85;;;17.20;70.80;;;;;;4987951;28;95277;-47
2021/09/24 00:14:44;;;;;;;4.10;3.65;;;17.20;70.80;;;;;;4989271;28;95897;-47
2021/09/24 00:17:15;;;;;;;6.85;6.15;;;17.30;70.70;;;;;;4977587;28;95893;-48
2021/09/24 00:19:46;;;;;;;;;;;17.30;70.70;;;;;;4990582;28;95460;-49
2021/09/24 00:22:17;;;;;;;9.93;8.55;;;17.30;70.70;;;;;;4991293;28;96837;-47
2021/09/24 00:24:48;;;;;;;8.07;7.28;;;17.30;70.70;;;;;;4990990;28;96524;-48
2021/09/24 00:27:19;;;;;;;8.45;7.22;;;17.30;70.60;;;;;;4989389;28;96465;-50
2021/09/24 00:29:49;;;;;;;8.57;7.67;;;17.40;70.60;;;;;;5019921;27;96313;-47
2021/09/24 00:32:22;;;;;;;8.82;7.93;;;17.40;70.50;;;;;;4984202;28;95920;-47
2021/09/24 00:34:53;;;;;;;8.30;7.28;;;17.40;70.40;;;;;;4990463;28;96102;-48
2021/09/24 00:37:25;;;;;;;8.50;7.70;;;17.40;70.40;;;;;;4985369;28;95896;-50
2021/09/24 00:39:56;;;;;;;10.73;8.32;;;17.40;70.40;;;;;;4986316;28;96019;-47
2021/09/24 00:42:27;;;;;;;;;;;17.40;70.40;;;;;;4990336;28;95211;-48
2021/09/24 00:44:57;;;;;;;8.98;7.88;;;17.50;70.40;;;;;;4985218;28;95389;-47
2021/09/24 00:47:27;;;;;;;8.13;7.05;;;17.50;70.40;;;;;;4981978;28;96844;-48
2021/09/24 00:49:57;;;;;;;10.68;7.95;;;17.50;70.40;;;;;;4984434;28;98855;-48
2021/09/24 00:52:28;;;;;;;8.23;6.38;;;17.50;70.20;;;;;;4982733;28;98046;-49
2021/09/24 00:55:00;;;;;;;8.07;7.28;;;17.50;70.30;;;;;;4988390;28;95820;-47
2021/09/24 00:57:30;;;;;;;7.78;7.00;;;17.50;70.30;;;;;;4988559;28;96412;-47
2021/09/24 01:00:01;;;;;;;8.00;7.07;;;17.50;70.20;;;;;;4987752;28;95957;-46
2021/09/24 01:02:33;;;;;;;8.23;6.55;;;17.50;70.20;;;;;;4981988;28;97160;-47
2021/09/24 01:05:08;;;;;;;8.13;6.20;;;17.50;70.10;;;;;;4984771;28;95656;-47
2021/09/24 01:07:43;;;;;;;5.93;5.07;;;17.50;70.00;;;;;;4978174;28;98008;-49
2021/09/24 01:10:16;;;;;;;12.38;3.03;;;17.50;69.50;;;;;;4981097;28;95967;-47
2021/09/24 01:12:47;;;;;;;8.88;2.90;;;17.30;61.90;;;;;;4983910;28;95878;-47
2021/09/24 01:15:21;;;;;;;8.23;2.20;;;17.00;60.40;;;;;;4981605;28;95651;-48
2021/09/24 01:17:52;;;;;;;8.90;1.98;;;16.90;60.80;;;;;;4984942;28;96656;-46
2021/09/24 01:20:24;;;;;;;5.47;1.83;;;16.70;60.60;;;;;;4985276;28;95942;-46
2021/09/24 01:22:54;;;;;;;4.43;1.92;;;16.60;61.40;;;;;;4980008;28;96128;-48
2021/09/24 01:25:25;;;;;;;6.88;2.85;;;16.60;61.40;;;;;;4976889;28;95184;-48
2021/09/24 01:27:56;;;;;;;11.32;3.17;;;16.50;62.10;;;;;;4975508;28;95927;-48
2021/09/24 01:30:27;;;;;;;5.18;2.25;;;16.40;62.40;;;;;;4978948;28;96031;-48
2021/09/24 01:32:57;;;;;;;7.63;2.50;;;16.40;61.90;;;;;;4981553;28;95702;-48
2021/09/24 01:35:27;;;;;;;8.68;2.70;;;16.40;62.20;;;;;;4985456;28;95400;-48
2021/09/24 01:37:59;;;;;;;7.95;2.28;;;16.30;62.30;;;;;;4987655;28;98851;-47
2021/09/24 01:40:29;;;;;;;6.13;2.45;;;16.30;62.20;;;;;;4987533;28;95756;-47
2021/09/24 01:43:01;;;;;;;8.25;4.07;;;16.30;62.50;;;;;;4985198;28;95805;-49
2021/09/24 01:45:31;;;;;;;7.60;2.85;;;16.20;62.80;;;;;;4987725;28;95865;-47
2021/09/24 01:48:02;;;;;;;6.40;2.75;;;16.10;62.60;;;;;;4984162;28;96580;-49
2021/09/24 01:50:35;;;;;;;8.30;2.67;;;16.10;63.60;;;;;;4986730;28;96047;-47
2021/09/24 01:53:06;;;;;;;8.18;2.47;;;16.10;63.50;;;;;;4984890;28;95976;-48
2021/09/24 01:55:37;;;;;;;7.43;2.15;;;16.20;64.60;;;;;;4981003;28;95812;-46
2021/09/24 01:58:09;;;;;;;10.05;3.00;;;16.20;65.80;;;;;;4984945;28;96071;-47
2021/09/24 02:00:40;;;;;;;6.40;2.38;;;16.20;66.30;;;;;;4980393;28;96005;-48
2021/09/24 02:03:12;;;;;;;7.60;2.55;;;16.00;67.00;;;;;;4987909;28;95530;-50
2021/09/24 02:05:43;;;;;;;11.05;2.30;;;15.90;67.90;;;;;;4987023;28;95722;-47
2021/09/24 02:08:14;;;;;;;5.57;2.53;;;15.70;69.10;;;;;;4983733;28;96179;-49
2021/09/24 02:10:45;;;;;;;7.45;1.85;;;15.60;69.70;;;;;;4973880;28;96080;-47
2021/09/24 02:13:17;;;;;;;9.60;2.42;;;15.50;70.60;;;;;;4983134;28;96262;-47
2021/09/24 02:15:49;;;;;;;8.73;2.20;;;15.50;70.50;;;;;;4978752;28;95997;-48
2021/09/24 02:18:20;;;;;;;6.63;1.83;;;15.50;70.80;;;;;;4950990;28;96963;-48
2021/09/24 02:20:51;;;;;;;7.70;2.35;;;15.50;70.90;;;;;;4968694;28;95368;-51
2021/09/24 02:23:21;;;;;;;7.88;2.10;;;15.60;70.90;;;;;;4972833;28;95442;-47
2021/09/24 02:25:52;;;;;;;7.78;1.90;;;15.70;70.90;;;;;;4972796;28;95874;-49
2021/09/24 02:28:23;;;;;;;5.95;2.22;;;15.80;70.80;;;;;;4970483;28;96626;-49
2021/09/24 02:30:53;;;;;;;4.25;1.77;;;15.90;70.70;;;;;;4963854;28;97161;-50
2021/09/24 02:33:23;;;;;;;6.45;1.90;;;16.10;70.40;;;;;;4970610;28;96052;-53
2021/09/24 02:35:54;;;;;;;5.72;1.80;;;16.20;70.40;;;;;;4971063;28;95533;-48
2021/09/24 02:38:25;;;;;;;3.55;1.52;;;16.30;69.10;;;;;;4970120;28;96492;-51
2021/09/24 02:40:59;;;;;;;7.50;2.22;;;16.40;70.10;;;;;;4970822;28;96003;-49
2021/09/24 02:43:31;;;;;;;4.13;1.65;;;16.60;69.90;;;;;;4985731;28;96054;-48
2021/09/24 02:46:01;;;;;;;3.88;1.75;;;16.80;69.40;;;;;;4967925;28;97010;-50
2021/09/24 02:48:32;;;;;;;4.93;1.83;;;16.90;68.80;;;;;;4968013;28;96407;-49
2021/09/24 02:51:04;;;;;;;2.10;1.50;;;17.10;68.90;;;;;;4971130;28;95913;-52
2021/09/24 02:53:35;;;;;;;2.67;1.50;;;17.30;68.80;;;;;;4969012;28;95614;-51
2021/09/24 02:56:05;;;;;;;1.90;1.40;;;17.60;67.80;;;;;;4971837;28;96008;-49
2021/09/24 02:58:36;;;;;;;6.32;1.98;;;17.70;68.60;;;;;;4969677;28;95834;-48
2021/09/24 03:01:07;;;;;;;;;;;17.90;68.00;;;;;;4967365;28;95929;-51
2021/09/24 03:03:38;;;;;;;3.27;1.37;;;18.10;67.40;;;;;;4971717;28;95965;-52
2021/09/24 03:06:10;;;;;;;3.53;1.33;;;18.30;67.10;;;;;;4969762;28;95887;-49
2021/09/24 03:08:41;;;;;;;5.80;1.73;;;18.50;66.60;;;;;;4965853;28;95955;-49
2021/09/24 03:11:12;;;;;;;2.35;1.05;;;18.60;65.90;;;;;;4968084;28;99207;-50
2021/09/24 03:13:44;;;;;;;2.28;1.30;;;18.70;65.70;;;;;;4970297;28;95581;-50
2021/09/24 03:16:19;;;;;;;3.10;1.27;;;18.80;64.10;;;;;;4974476;28;96013;-50
2021/09/24 03:18:50;;;;;;;4.75;1.60;;;18.90;64.20;;;;;;4991326;28;96794;-48
2021/09/24 03:21:21;;;;;;;;;;;19.00;66.00;;;;;;4990570;28;95950;-49
2021/09/24 03:23:52;;;;;;;4.68;2.00;;;19.10;63.90;;;;;;4992991;28;95774;-51
2021/09/24 03:26:24;;;;;;;2.40;1.30;;;19.30;64.40;;;;;;5015568;28;97712;-51
2021/09/24 03:28:53;;;;;;;;;;;19.40;64.40;;;;;;4986846;28;96508;-52
2021/09/24 03:31:23;;;;;;;1.73;1.20;;;19.50;64.20;;;;;;4989352;28;95789;-51
2021/09/24 03:33:53;;;;;;;2.03;1.55;;;19.60;63.50;;;;;;4991088;28;95673;-49
2021/09/24 03:36:23;;;;;;;4.20;1.55;;;19.70;63.70;;;;;;4991872;28;95886;-49
2021/09/24 03:38:54;;;;;;;4.35;1.23;;;19.70;63.30;;;;;;4988531;28;95915;-50
2021/09/24 03:41:25;;;;;;;4.03;1.63;;;19.80;63.20;;;;;;4990593;28;96070;-48
2021/09/24 03:43:58;;;;;;;2.25;1.20;;;19.90;62.80;;;;;;4991976;28;95699;-51
2021/09/24 03:46:28;;;;;;;4.45;1.58;;;19.90;62.70;;;;;;5015473;28;96749;-51
2021/09/24 03:48:58;;;;;;;1.70;1.10;;;20.00;62.20;;;;;;4991188;28;96819;-51
2021/09/24 03:51:29;;;;;;;2.80;1.48;;;20.10;63.80;;;;;;4984418;28;95723;-51
2021/09/24 03:54:00;;;;;;;1.73;1.10;;;20.10;63.30;;;;;;4986937;28;95985;-49
2021/09/24 03:56:31;;;;;;;2.97;1.15;;;20.10;61.20;;;;;;4991399;28;95281;-49
2021/09/24 03:59:02;;;;;;;1.80;1.00;;;20.10;61.20;;;;;;4990918;28;95888;-50
2021/09/24 04:01:33;;;;;;;3.42;1.30;;;20.10;60.40;;;;;;4986851;28;96029;-50
2021/09/24 04:04:05;;;;;;;4.10;1.25;;;20.10;61.30;;;;;;4991441;28;95964;-49
2021/09/24 04:06:36;;;;;;;2.97;1.27;;;20.10;61.50;;;;;;4989112;28;95513;-50
2021/09/24 04:09:06;;;;;;;2.13;1.40;;;20.10;58.70;;;;;;4981952;28;96056;-55
2021/09/24 04:11:38;;;;;;;1.63;1.02;;;20.10;60.00;;;;;;4987668;28;97148;-54
2021/09/24 04:14:10;;;;;;;0.82;0.70;;;20.10;58.80;;;;;;4990934;28;95931;-52
2021/09/24 04:16:41;;;;;;;2.00;1.17;;;20.00;59.90;;;;;;4986230;28;95804;-50
2021/09/24 04:19:12;;;;;;;2.47;0.98;;;20.10;57.20;;;;;;4988488;28;95891;-52
2021/09/24 04:21:42;;;;;;;;;;;20.00;58.30;;;;;;4990468;28;96555;-51
2021/09/24 04:24:13;;;;;;;1.88;1.15;;;20.10;58.20;;;;;;4991565;28;95429;-49
2021/09/24 04:26:44;;;;;;;1.38;0.90;;;20.20;58.50;;;;;;4983266;28;96130;-47
2021/09/24 04:29:14;;;;;;;2.03;1.08;;;20.20;59.50;;;;;;4988744;28;95897;-52
2021/09/24 04:31:44;;;;;;;1.27;1.15;;;20.20;57.80;;;;;;4983348;28;96725;-50
2021/09/24 04:34:14;;;;;;;1.60;1.10;;;20.30;57.60;;;;;;4990701;28;95709;-48
2021/09/24 04:36:45;;;;;;;2.85;1.17;;;20.30;59.10;;;;;;4990048;28;96142;-50
2021/09/24 04:39:16;;;;;;;2.03;0.88;;;20.30;57.40;;;;;;4989079;28;96610;-50
2021/09/24 04:41:47;;;;;;;1.73;1.00;;;20.30;58.10;;;;;;4989174;28;96040;-50
2021/09/24 04:44:18;;;;;;;1.70;1.02;;;20.30;57.90;;;;;;4990773;28;95288;-49
2021/09/24 04:46:48;;;;;;;6.07;1.10;;;20.30;56.70;;;;;;4984455;28;97115;-49
2021/09/24 04:49:19;;;;;;;1.38;1.15;;;20.20;54.40;;;;;;4989623;28;96466;-53
2021/09/24 04:51:50;;;;;;;1.65;1.48;;;20.10;54.80;;;;;;4987396;28;95853;-53
2021/09/24 04:54:21;;;;;;;3.13;1.05;;;20.10;57.90;;;;;;4985386;28;95825;-47
2021/09/24 04:56:52;;;;;;;3.97;1.27;;;20.20;58.50;;;;;;4990461;28;95786;-49
2021/09/24 04:59:23;;;;;;;1.65;1.10;;;20.20;57.00;;;;;;4989484;28;95934;-50
2021/09/24 05:01:55;;;;;;;2.25;1.10;;;20.30;58.00;;;;;;4985892;28;96161;-48
2021/09/24 05:04:25;;;;;;;1.42;0.90;;;20.20;57.70;;;;;;4988835;28;95942;-51
2021/09/24 05:06:57;;;;;;;1.73;1.25;;;20.20;59.90;;;;;;4981410;28;95997;-48
2021/09/24 05:09:27;;;;;;;1.57;0.87;;;20.30;49.40;;;;;;4974958;28;96540;-52
2021/09/24 05:11:58;;;;;;;;;;;20.30;59.40;;;;;;4988012;28;96108;-47
2021/09/24 05:14:28;;;;;;;2.35;1.42;;;20.30;57.20;;;;;;4992179;28;98150;-53
2021/09/24 05:16:59;;;;;;;2.40;1.30;;;20.20;58.50;;;;;;4986752;28;95848;-49
2021/09/24 05:19:30;;;;;;;2.97;1.10;;;20.20;59.40;;;;;;4987419;28;95824;-48
2021/09/24 05:22:02;;;;;;;2.80;1.77;;;20.20;58.60;;;;;;4987483;28;95840;-50
2021/09/24 05:24:33;;;;;;;3.38;1.30;;;20.20;58.60;;;;;;4989606;28;95740;-50
2021/09/24 05:27:05;;;;;;;3.15;1.45;;;20.30;59.40;;;;;;4987518;28;95737;-49
2021/09/24 05:29:36;;;;;;;2.05;1.02;;;20.40;58.50;;;;;;4988987;28;95921;-48
2021/09/24 05:32:06;;;;;;;5.38;1.50;;;20.50;59.20;;;;;;4985893;28;95913;-53
2021/09/24 05:34:36;;;;;;;2.63;1.48;;;20.40;56.70;;;;;;4990254;28;96126;-48
2021/09/24 05:37:08;;;;;;;2.97;1.73;;;20.30;58.50;;;;;;4987995;28;95238;-48
2021/09/24 05:39:38;;;;;;;6.05;1.85;;;20.30;59.10;;;;;;4987914;28;95997;-48
2021/09/24 05:42:10;;;;;;;6.03;2.10;;;20.20;56.30;;;;;;4985612;28;95537;-51
2021/09/24 05:44:41;;;;;;;6.40;2.17;;;20.20;59.70;;;;;;4984035;28;95696;-51
2021/09/24 05:47:11;;;;;;;4.57;2.53;;;20.10;55.90;;;;;;4985704;28;96205;-50
2021/09/24 05:49:41;;;;;;;4.18;3.00;;;20.10;57.20;;;;;;4989833;28;95860;-50
2021/09/24 05:52:14;;;;;;;3.60;2.03;;;20.00;59.60;;;;;;4988309;28;95860;-50
2021/09/24 05:54:46;;;;;;;6.03;2.97;;;19.90;57.20;;;;;;4986642;28;95661;-49
2021/09/24 05:57:17;;;;;;;5.25;2.65;;;19.90;57.00;;;;;;4989749;28;95779;-49
2021/09/24 05:59:48;;;;;;;3.75;2.10;;;19.90;57.90;;;;;;4989192;28;96347;-48
2021/09/24 06:02:20;;;;;;;4.97;2.58;;;19.90;56.60;;;;;;4986080;28;99001;-51
2021/09/24 06:04:52;;;;;;;3.92;2.40;;;19.80;57.60;;;;;;4990162;28;95863;-51
2021/09/24 06:07:22;;;;;;;;;;;19.80;57.20;;;;;;4990894;28;95860;-53
2021/09/24 06:09:54;;;;;;;3.63;2.00;;;19.80;60.50;;;;;;4984837;28;96624;-56
2021/09/24 06:12:25;;;;;;;5.85;3.70;;;19.80;59.20;;;;;;4987213;28;96013;-52
2021/09/24 06:14:57;;;;;;;6.72;2.33;;;19.80;57.90;;;;;;4991283;28;95837;-49
2021/09/24 06:17:29;;;;;;;4.80;2.20;;;19.70;54.50;;;;;;4989095;28;95412;-54
2021/09/24 06:20:01;;;;;;;5.63;2.28;;;19.60;54.40;;;;;;4985287;28;95958;-52
2021/09/24 06:22:35;;;;;;;3.22;1.85;;;19.60;58.40;;;;;;4988577;28;95784;-52
2021/09/24 06:25:13;;;;;;;13.77;2.80;;;19.60;57.50;;;;;;4989581;28;95944;-51
2021/09/24 06:27:44;;;;;;;3.38;2.03;;;19.50;56.70;;;;;;4988793;28;95415;-52
2021/09/24 06:30:20;;;;;;;6.15;2.22;;;19.60;58.90;;;;;;4986930;28;95784;-48
2021/09/24 06:32:51;;;;;;;5.95;1.98;;;19.60;57.40;;;;;;4989810;28;95799;-52
2021/09/24 06:35:23;;;;;;;4.65;2.22;;;19.50;55.30;;;;;;4989345;28;96024;-53
2021/09/24 06:37:57;;;;;;;3.03;1.95;;;19.40;55.00;;;;;;4988535;28;96029;-48
2021/09/24 06:40:27;;;;;;;3.10;1.42;;;19.40;55.40;;;;;;4985562;28;96363;-50
2021/09/24 06:43:03;;;;;;;5.07;2.08;;;19.30;51.60;;;;;;4982455;28;95733;-51
2021/09/24 06:45:34;;;;;;;2.38;1.70;;;19.30;53.00;;;;;;4997826;28;95926;-52
2021/09/24 06:48:05;;;;;;;4.70;1.80;;;19.30;56.90;;;;;;4988702;28;95487;-51
2021/09/24 06:50:37;;;;;;;;;;;19.30;55.00;;;;;;4989617;28;96074;-50
2021/09/24 06:53:08;;;;;;;3.78;1.67;;;19.30;56.30;;;;;;4989107;28;95678;-54
2021/09/24 06:55:38;;;;;;;2.87;1.77;;;19.20;57.10;;;;;;4981173;28;96003;-51
2021/09/24 06:58:10;;;;;;;3.90;1.40;;;19.30;54.80;;;;;;4986975;28;95740;-51
2021/09/24 07:00:42;;;;;;;5.35;1.92;;;19.30;55.80;;;;;;4983553;28;96157;-52
2021/09/24 07:03:18;;;;;;;4.57;1.50;;;19.20;53.60;;;;;;4988326;28;95909;-50
2021/09/24 07:05:50;;;;;;;4.57;1.90;;;19.20;54.00;;;;;;4991405;28;95782;-51
2021/09/24 07:08:22;;;;;;;4.57;1.88;;;19.10;53.70;;;;;;4989701;28;95710;-51
2021/09/24 07:10:56;;;;;;;7.03;1.48;;;19.00;49.10;;;;;;4988887;28;96793;-52
2021/09/24 07:13:29;;;;;;;3.15;1.55;;;19.00;50.70;;;;;;4986591;28;95780;-51
2021/09/24 07:15:59;;;;;;;7.57;1.67;;;19.00;55.80;;;;;;4986890;28;95635;-51
2021/09/24 07:18:30;;;;;;;3.85;1.60;;;19.00;54.30;;;;;;4989903;28;95871;-54
2021/09/24 07:21:02;;;;;;;3.00;1.30;;;19.00;51.80;;;;;;4990301;28;96009;-51
2021/09/24 07:23:34;;;;;;;6.05;2.10;;;19.00;55.20;;;;;;4990348;28;95810;-55
2021/09/24 07:26:06;;;;;;;4.38;1.70;;;19.00;55.50;;;;;;4990047;28;95736;-48
2021/09/24 07:28:38;;;;;;;5.82;1.55;;;18.90;54.60;;;;;;4992912;28;95249;-51
2021/09/24 07:31:10;;;;;;;7.95;2.22;;;18.90;54.00;;;;;;4988543;28;97004;-52
2021/09/24 07:33:40;;;;;;;5.70;2.50;;;18.80;56.60;;;;;;4990943;28;95588;-54
2021/09/24 07:36:12;;;;;;;4.05;1.88;;;18.80;56.80;;;;;;4991410;28;95957;-50
2021/09/24 07:38:43;;;;;;;10.25;3.78;;;18.70;55.70;;;;;;4989956;28;96014;-54
2021/09/24 07:41:14;;;;;;;6.00;1.63;;;18.70;56.00;;;;;;4988697;28;95859;-54
2021/09/24 07:43:47;;;;;;;;;;;18.70;56.30;;;;;;4988205;28;95803;-55
2021/09/24 07:46:21;;;;;;;5.07;1.67;;;18.70;57.20;;;;;;4987743;28;95299;-53
2021/09/24 07:48:52;;;;;;;3.85;1.27;;;18.70;58.20;;;;;;4991548;28;95897;-53
2021/09/24 07:51:23;;;;;;;5.63;1.73;;;18.60;56.50;;;;;;4990903;28;95930;-53
2021/09/24 07:53:55;;;;;;;5.65;1.80;;;18.50;57.00;;;;;;4986826;28;95700;-55
2021/09/24 07:56:26;;;;;;;5.28;2.13;;;18.30;57.20;;;;;;4987898;28;96072;-54
2021/09/24 07:58:56;;;;;;;;;;;18.30;57.20;;;;;;4988841;28;95839;-55
2021/09/24 08:01:28;;;;;;;4.18;1.90;;;18.30;57.00;;;;;;4983929;28;95809;-51
2021/09/24 08:03:59;;;;;;;5.35;2.08;;;18.20;57.20;;;;;;4986826;28;95792;-51
2021/09/24 08:06:30;;;;;;;5.65;1.55;;;18.20;57.20;;;;;;4986422;28;96087;-52
2021/09/24 08:09:01;;;;;;;3.85;1.58;;;18.20;56.70;;;;;;4984053;28;95923;-52
2021/09/24 08:11:33;;;;;;;4.97;1.63;;;18.20;57.10;;;;;;4980382;28;95874;-52
2021/09/24 08:14:04;;;;;;;4.15;1.65;;;18.20;57.40;;;;;;4988601;28;95834;-51
2021/09/24 08:16:36;;;;;;;3.92;1.50;;;18.20;57.70;;;;;;4985342;28;95448;-48
2021/09/24 08:19:07;;;;;;;;;;;18.10;57.60;;;;;;4992029;28;97189;-51
2021/09/24 08:21:38;;;;;;;4.40;1.50;;;18.10;57.90;;;;;;4991650;28;97281;-49
2021/09/24 08:24:09;;;;;;;6.65;1.90;;;18.10;48.00;;;;;;4990666;28;95997;-53
2021/09/24 08:26:40;;;;;;;3.30;1.60;;;18.10;57.80;;;;;;4989476;28;95792;-50
2021/09/24 08:29:10;;;;;;;7.07;2.27;;;18.00;58.30;;;;;;5019991;28;95999;-49
2021/09/24 08:31:41;;;;;;;;;;;17.90;57.30;;;;;;4980906;28;96553;-47
2021/09/24 08:34:14;;;;;;;4.93;1.70;;;17.80;56.90;;;;;;4991800;28;95836;-52
2021/09/24 08:36:45;;;;;;;3.53;1.45;;;17.80;57.70;;;;;;4990091;28;95613;-51
2021/09/24 08:39:15;;;;;;;4.13;1.80;;;17.70;58.20;;;;;;4991553;28;95307;-49
2021/09/24 08:41:45;;;;;;;4.78;1.42;;;17.60;58.90;;;;;;4989502;28;95871;-51
2021/09/24 08:44:15;;;;;;;3.92;1.88;;;17.50;59.80;;;;;;4987065;28;95928;-48
2021/09/24 08:46:48;;;;;;;4.60;1.63;;;17.50;60.30;;;;;;4984785;28;95424;-53
2021/09/24 08:49:20;;;;;;;5.82;1.73;;;17.40;61.50;;;;;;4990598;28;95913;-49
2021/09/24 08:51:51;;;;;;;5.43;1.60;;;17.50;60.90;;;;;;4987901;28;95871;-57
2021/09/24 08:54:22;;;;;;;5.03;2.00;;;17.50;61.30;;;;;;4989386;28;96257;-49
2021/09/24 08:56:53;;;;;;;4.18;1.60;;;17.50;61.10;;;;;;4988215;28;95354;-56
2021/09/24 08:59:24;;;;;;;4.45;1.45;;;17.50;62.00;;;;;;4990541;28;96019;-57
2021/09/24 09:02:15;;;;;;;4.00;1.45;;;17.50;62.30;;;;;;4984518;28;96121;-49
2021/09/24 09:04:47;;;;;;;;;;;17.40;63.00;;;;;;4989190;28;96423;-48
2021/09/24 09:07:21;;;;;;;4.72;1.52;;;17.40;63.60;;;;;;4991073;28;95692;-49
2021/09/24 09:09:53;;;;;;;4.65;1.60;;;17.40;63.80;;;;;;4982012;28;95873;-49
2021/09/24 09:12:29;;;;;;;5.95;1.77;;;17.40;62.70;;;;;;4987488;28;96523;-56
2021/09/24 09:15:10;;;;;;;3.10;1.50;;;17.30;63.40;;;;;;4989560;28;95640;-48
2021/09/24 09:17:50;;;;;;;5.25;1.77;;;17.30;63.40;;;;;;4988768;28;95968;-52
2021/09/24 09:20:31;;;;;;;6.05;2.25;;;17.20;63.80;;;;;;4986376;28;95724;-54
2021/09/24 09:23:07;;;;;;;5.70;1.88;;;17.10;63.30;;;;;;4987887;28;95932;-56
2021/09/24 09:25:43;;;;;;;7.25;1.95;;;17.10;63.50;;;;;;5020745;28;95961;-55
2021/09/24 09:28:25;;;;;;;3.72;1.73;;;17.10;63.30;;;;;;4986373;28;95654;-48
2021/09/24 09:30:59;;;;;;;4.22;1.70;;;17.00;63.40;;;;;;4982703;28;95835;-49
2021/09/24 09:33:29;;;;;;;4.70;1.95;;;17.00;64.00;;;;;;4990074;28;96451;-47
2021/09/24 09:36:02;;;;;;;6.30;2.00;;;17.00;63.10;;;;;;4988910;28;95324;-52
2021/09/24 09:38:37;;;;;;;5.72;2.22;;;16.90;63.00;;;;;;4987460;28;95741;-47
2021/09/24 09:41:20;;;;;;;6.40;2.55;;;16.80;63.20;;;;;;4983765;28;95966;-56
2021/09/24 09:44:00;;;;;;;5.43;1.80;;;16.80;63.60;;;;;;4990497;28;96676;-55
2021/09/24 09:46:34;;;;;;;4.82;2.08;;;16.70;63.50;;;;;;4982551;28;95555;-55
2021/09/24 09:49:10;;;;;;;5.32;1.65;;;16.80;63.70;;;;;;4982660;28;95690;-56
2021/09/24 09:51:43;;;;;;;4.88;1.90;;;16.70;63.70;;;;;;4982078;28;95701;-54
2021/09/24 09:54:34;;;;;;;7.18;2.08;;;16.80;64.60;;;;;;4989196;28;95918;-57
2021/09/24 09:57:22;;;;;;;9.68;2.22;;;16.80;63.80;;;;;;4980054;28;95783;-48
2021/09/24 09:59:56;;;;;;;6.70;2.20;;;16.70;61.80;;;;;;4988728;28;95333;-51
2021/09/24 10:02:33;;;;;;;6.07;1.77;;;16.70;62.30;;;;;;4983355;28;95917;-51
2021/09/24 10:05:05;;;;;;;4.22;1.85;;;16.70;62.20;;;;;;4986225;28;95815;-48
2021/09/24 10:07:36;;;;;;;;;;;16.60;62.60;;;;;;4988126;28;95846;-51
2021/09/24 10:10:08;;;;;;;9.00;2.05;;;16.60;62.70;;;;;;4978502;28;95676;-51
2021/09/24 10:12:42;;;;;;;7.32;2.10;;;16.60;62.20;;;;;;4988652;28;95554;-49
2021/09/24 10:15:15;;;;;;;6.55;2.15;;;16.60;62.90;;;;;;4978450;28;96042;-53
2021/09/24 10:17:46;;;;;;;8.85;2.78;;;16.60;61.70;;;;;;4987591;28;100343;-53
2021/09/24 10:20:17;;;;;;;5.20;1.90;;;16.60;61.70;;;;;;4987736;28;95844;-55
2021/09/24 10:22:48;;;;;;;8.88;2.60;;;16.60;62.70;;;;;;4988991;28;95381;-53
2021/09/24 10:25:23;;;;;;;8.10;2.10;;;16.70;62.40;;;;;;4983447;28;96027;-54
2021/09/24 10:27:55;;;;;;;6.70;2.42;;;16.50;61.30;;;;;;4986631;28;95934;-54
2021/09/24 10:30:25;;;;;;;5.13;1.98;;;16.50;62.10;;;;;;4983088;28;95823;-53
2021/09/24 10:33:06;;;;;;;11.43;3.45;;;16.60;62.00;;;;;;4988555;28;95586;-50
2021/09/24 10:35:48;;;;;;;6.72;2.25;;;16.50;61.70;;;;;;4985837;28;96747;-49
2021/09/24 10:38:24;;;;;;;5.47;2.27;;;16.40;61.20;;;;;;4983707;28;95896;-54
2021/09/24 10:41:05;;;;;;;4.20;1.70;;;16.50;65.00;;;;;;4990911;28;95676;-56
2021/09/24 10:43:41;;;;;;;4.13;1.27;;;16.80;65.90;;;;;;4991183;28;95783;-54
2021/09/24 10:46:29;;;;;;;3.55;1.25;;;17.00;66.10;;;;;;4984474;28;97071;-50
2021/09/24 10:49:19;;;;;;;2.47;1.25;;;17.20;66.00;;;;;;4983940;28;95996;-51
2021/09/24 10:51:59;;;;;;;3.60;1.70;;;17.40;64.80;;;;;;4983836;28;95697;-53
2021/09/24 10:54:33;;;;;;;4.32;1.65;;;17.40;64.80;;;;;;4981800;28;95810;-55
2021/09/24 10:57:08;;;;;;;4.60;1.83;;;17.50;64.30;;;;;;4978684;28;96239;-52
2021/09/24 10:59:39;;;;;;;4.45;1.45;;;17.60;63.80;;;;;;4983777;28;95749;-54
2021/09/24 11:02:36;;;;;;;6.35;1.40;;;17.60;63.40;;;;;;4981991;28;95889;-56
2021/09/24 11:05:09;;;;;;;5.10;1.60;;;17.70;63.00;;;;;;4978021;28;95691;-56
2021/09/24 11:07:40;;;;;;;6.25;1.90;;;17.70;62.50;;;;;;4974076;28;96945;-56
2021/09/24 11:10:13;;;;;;;3.65;2.05;;;17.70;62.30;;;;;;4975147;28;95707;-56
2021/09/24 11:13:09;;;;;;;5.63;1.70;;;17.70;62.00;;;;;;4979884;28;96058;-55
2021/09/24 11:16:09;;;;;;;4.15;1.77;;;17.70;62.00;;;;;;4973570;28;96027;-54
2021/09/24 11:18:52;;;;;;;6.35;1.85;;;17.70;61.70;;;;;;4981883;28;97271;-56
2021/09/24 11:21:26;;;;;;;4.70;1.63;;;17.70;61.70;;;;;;5005335;27;95961;-54
2021/09/24 11:23:59;;;;;;;3.67;1.00;;;17.80;52.40;;;;;;4978425;28;97358;-56
2021/09/24 11:26:34;;;;;;;4.82;1.70;;;17.70;61.80;;;;;;4984263;28;95716;-55
2021/09/24 11:29:07;;;;;;;10.27;2.55;;;17.70;61.50;;;;;;4985145;28;96161;-56
2021/09/24 11:32:01;;;;;;;5.68;1.60;;;17.70;61.30;;;;;;4982836;28;95519;-56
2021/09/24 11:37:17;;;;;;;6.55;2.20;;;17.70;61.30;;;;;;4988010;28;97041;-56
2021/09/24 11:39:53;;;;;;;6.35;1.42;;;17.70;61.30;;;;;;4986387;28;97948;-55
2021/09/24 11:42:28;;;;;;;3.97;2.03;;;17.70;61.20;;;;;;4986772;28;95813;-52
2021/09/24 11:45:00;;;;;;;4.53;1.58;;;17.70;61.40;;;;;;4986903;28;95737;-52
2021/09/24 11:47:33;;;;;;;4.40;1.33;;;17.70;61.50;;;;;;4983539;28;95642;-55
2021/09/24 11:50:09;;;;;;;2.92;1.15;;;17.60;61.60;;;;;;4981907;28;95928;-49
2021/09/24 11:52:43;;;;;;;4.03;1.40;;;17.60;62.40;;;;;;4985832;28;95808;-55
2021/09/24 11:55:35;;;;;;;5.80;1.95;;;17.70;62.80;;;;;;4987537;28;95923;-57
2021/09/24 11:58:08;;;;;;;5.43;1.40;;;17.70;62.90;;;;;;4987033;28;95645;-55
2021/09/24 12:00:49;;;;;;;2.78;1.25;;;17.70;63.00;;;;;;4982809;28;95921;-54
2021/09/24 12:03:24;;;;;;;2.85;1.23;;;17.70;62.90;;;;;;4984816;28;95430;-57
2021/09/24 12:05:58;;;;;;;2.97;1.40;;;17.70;63.20;;;;;;4986230;28;96762;-55
2021/09/24 12:08:32;;;;;;;4.93;1.13;;;17.70;63.20;;;;;;4981464;28;96744;-56
2021/09/24 12:11:10;;;;;;;4.63;1.80;;;17.70;63.30;;;;;;4974925;28;96531;-55
2021/09/24 12:13:54;;;;;;;2.55;1.15;;;17.70;63.30;;;;;;4986190;28;96161;-56
2021/09/24 12:16:30;;;;;;;2.78;1.10;;;17.70;63.40;;;;;;4982729;28;95917;-56
2021/09/24 12:19:09;;;;;;;4.32;1.38;;;17.70;63.50;;;;;;4974920;28;95692;-55
2021/09/24 12:21:55;;;;;;;3.47;1.25;;;17.70;63.60;;;;;;4978458;28;96553;-56
2021/09/24 12:24:35;;;;;;;3.03;1.42;;;17.70;63.70;;;;;;4972098;28;95882;-56
2021/09/24 12:27:26;;;;;;;2.42;1.67;;;17.70;63.70;;;;;;4978298;28;95805;-51
2021/09/24 12:30:10;;;;;;;2.55;1.10;;;17.70;64.40;;;;;;4986062;28;95948;-55
2021/09/24 12:32:41;;;;;;;3.17;1.20;;;17.70;63.90;;;;;;4985935;28;96572;-50
2021/09/24 12:35:13;;;;;;;3.08;1.27;;;17.70;63.80;;;;;;4987000;28;95795;-52
2021/09/24 12:37:46;;;;;;;3.40;1.50;;;17.70;63.90;;;;;;4984755;28;96135;-54
2021/09/24 12:40:21;;;;;;;2.80;1.60;;;17.70;64.00;;;;;;4986114;28;95776;-52
2021/09/24 12:42:57;;;;;;;2.45;1.17;;;17.70;64.10;;;;;;4986466;28;95951;-50
2021/09/24 12:45:38;;;;;;;2.30;1.13;;;17.70;64.10;;;;;;4979916;28;95879;-49
2021/09/24 12:48:11;;;;;;;6.95;1.63;;;17.70;64.00;;;;;;5017559;27;95569;-50
2021/09/24 12:50:47;;;;;;;6.53;1.33;;;17.70;64.50;;;;;;4986648;28;96007;-56
2021/09/24 12:53:19;;;;;;;8.13;1.60;;;17.70;64.90;;;;;;4979394;28;95893;-54
2021/09/24 12:55:51;;;;;;;7.57;1.15;;;17.60;64.90;;;;;;4999943;28;98299;-52
2021/09/24 12:58:24;;;;;;;;;;;17.70;64.60;;;;;;4985034;28;96005;-52
2021/09/24 13:00:58;;;;;;;3.78;1.35;;;17.70;64.40;;;;;;4978874;28;95972;-49
2021/09/24 13:03:32;;;;;;;3.72;1.13;;;17.80;54.90;;;;;;4984527;28;96774;-52
2021/09/24 13:06:05;;;;;;;4.75;1.27;;;17.80;64.70;;;;;;4979192;28;95625;-54
2021/09/24 13:08:36;;;;;;;2.65;1.48;;;17.70;64.80;;;;;;4975857;28;95884;-54
2021/09/24 13:11:09;;;;;;;4.15;1.60;;;17.80;65.00;;;;;;4974817;28;96084;-52
2021/09/24 13:13:40;;;;;;;3.72;1.60;;;17.70;64.90;;;;;;4986911;28;96594;-50
2021/09/24 13:16:13;;;;;;;3.17;1.20;;;17.70;65.10;;;;;;4983005;28;95902;-50
2021/09/24 13:18:44;;;;;;;3.97;1.48;;;17.70;65.20;;;;;;4985852;28;95443;-48
2021/09/24 13:21:18;;;;;;;1.90;1.65;;;17.70;65.40;;;;;;4988531;28;95939;-48
2021/09/24 13:23:53;;;;;;;2.92;1.83;;;17.70;65.20;;;;;;4983429;28;95878;-48